This is the latest recevied weather packets stored in our database for station/object SR5NLK-1. If no packets are shown the sender has not sent any weather packets the latest 10 day(s).
| Time | Temp. | Humidity | Pressure | Rain* | Wind** | Luminosity | Snow |
|---|---|---|---|---|---|---|---|
| 1787831819 | 25° C | 45% | 1065.8 hPa | 0 mm | - | - | - |
| 1787831698 | 27.22° C | 38% | 1038.2 hPa | 0 mm | - | - | - |
| 1787831399 | 27.78° C | 38% | 1086.2 hPa | 0 mm | - | - | - |
| 1787831364 | 24.44° C | 46% | 1062.7 hPa | 0 mm | - | - | - |
| 1787831099 | 27.22° C | 40% | 1094 hPa | 0 mm | - | - | - |
| 1787831006 | 24.44° C | 46% | 1075.3 hPa | 0 mm | - | - | - |
| 1787830799 | 26.67° C | 40% | 1084.6 hPa | 0 mm | - | - | - |
| 1787830523 | 24.44° C | 47% | 1075.2 hPa | 0 mm | - | - | - |
| 1787830499 | 26.67° C | 40% | 1053.2 hPa | 0 mm | - | - | - |
| 1787830199 | 26.67° C | 40% | 1048.9 hPa | 0 mm | - | - | - |
| 1787830197 | 24.44° C | 47% | 1094.1 hPa | 0 mm | - | - | - |
| 1787829899 | 27.22° C | 40% | 1030.2 hPa | 0 mm | - | - | - |
| 1787829718 | 27.22° C | 40% | 1087.8 hPa | 0 mm | - | - | - |
| 1787829701 | 24.44° C | 48% | 1062.7 hPa | 0 mm | - | - | - |
| 1787829600 | 26.67° C | 40% | 1045.6 hPa | 0 mm | - | - | - |
| 1787829299 | 26.67° C | 40% | 1027.1 hPa | 0 mm | - | - | - |
| 1787829285 | 23.89° C | 48% | 1059.5 hPa | 0 mm | - | - | - |
| 1787828999 | 27.22° C | 40% | 1071.8 hPa | 0 mm | - | - | - |
| 1787828812 | 23.89° C | 48% | 1065.8 hPa | 0 mm | - | - | - |
| 1787828699 | 27.22° C | 40% | 1081.5 hPa | 0 mm | - | - | - |
| 1787828495 | 23.89° C | 47% | 1075.2 hPa | 0 mm | - | - | - |
| 1787828399 | 27.22° C | 41% | 1075.2 hPa | 0 mm | - | - | - |
| 1787828182 | 23.89° C | 47% | 1020.8 hPa | 0 mm | - | - | - |
| 1787828099 | 26.67° C | 42% | 1090.9 hPa | 0 mm | - | - | - |
| 1787827845 | 24.44° C | 46% | 1036.5 hPa | 0 mm | - | - | - |
* Rain latest hour (hover to see other rain measurements)
** Current wind speed in m/s (hover to see current wind gust speed)